Longs, South Carolina
Current Conditions -  °F | °C
As of 5:53 AM on Thursday 23 Oct 2014 (Local Time) from KCRE Reporting Station
Clear Clear  
Wind Chill: 44°   Ceiling: Unl
Heat Index: 46°   Visibility: 10mi
Dew Point: 42°   Wind: 5mph
Humidity: 86%   Direction: NA
Pressure: 30.02"   Gusts: NA
Location:  33.94°N, 78.73°W
Report Text: KCRE 230953Z AUTO VRB04KT 10SM CLR 08/06 A3002 RMK AO1 SLP165 T00780056
Loading
Personal Weather Stations






























Interactive Weather Map
Tropical Storm Tracking
New forecast layout! Learn more

10-Day Weather Forecast

Advertisements
Track Severe Weather on mobile